Time;durP1;ratioP1;P1;durP2;ratioP2;P2;SDS_P1;SDS_P2;PMS_P1;PMS_P2;Temp;Humidity;BMP_temperature;BMP_pressure;BME280_temperature;BME280_humidity;BME280_pressure;Samples;Min_cycle;Max_cycle;Signal;HPM_P1;HPM_P2
2021/06/17 00:00:04;;;;;;;;;;;;;;;;;;;;;
2021/06/17 00:09:48;;;;;;;;;;;;;;;;;;;;;
2021/06/17 00:12:52;;;;;;;;;10.25;9.75;;;;;-144.77;100.00;61770.03;4839147;29;73004;-81
2021/06/17 01:53:04;;;;;;;;;9.50;8.25;;;;;-144.77;100.00;61770.03;4978326;28;48803;-78
2021/06/17 01:55:37;;;;;;;;;11.50;6.00;;;;;-144.77;100.00;61770.03;4979927;28;47051;-79
2021/06/17 01:58:10;;;;;;;;;4.25;2.00;;;;;-144.77;100.00;61770.03;4979693;28;46987;-78
2021/06/17 02:00:38;;;;;;;;;5.00;4.00;;;;;-144.77;100.00;61770.03;4979328;28;47050;-76
2021/06/17 02:03:07;;;;;;;;;2.00;2.00;;;;;-144.77;100.00;61770.03;4979130;28;47112;-75
2021/06/17 02:05:35;;;;;;;;;2.75;1.75;;;;;-144.77;100.00;61770.03;4961502;28;47377;-76
2021/06/17 02:08:03;;;;;;;;;2.25;1.25;;;;;-144.77;100.00;61770.03;4980267;28;46984;-75
2021/06/17 02:10:30;;;;;;;;;2.50;2.00;;;;;-144.77;100.00;61770.03;4980035;28;47079;-76
2021/06/17 02:12:56;;;;;;;;;4.00;2.00;;;;;-144.77;100.00;61770.03;4980110;28;48001;-78
2021/06/17 02:15:26;;;;;;;;;1.25;0.25;;;;;-144.77;100.00;61770.03;4979846;28;46758;-80
2021/06/17 02:17:54;;;;;;;;;3.50;2.00;;;;;-144.77;100.00;61770.03;4980120;28;47046;-80
2021/06/17 02:20:21;;;;;;;;;4.00;2.00;;;;;-144.77;100.00;61770.03;4980360;28;47120;-82
2021/06/17 02:22:49;;;;;;;;;5.25;4.00;;;;;-144.77;100.00;61770.03;4978873;28;47115;-83
2021/06/17 02:25:21;;;;;;;;;6.25;4.25;;;;;-144.77;100.00;61770.03;4978691;28;46829;-83
2021/06/17 02:27:53;;;;;;;;;5.50;4.25;;;;;-144.77;100.00;61770.03;4979017;28;46862;-81
2021/06/17 02:30:19;;;;;;;;;5.50;4.00;;;;;-144.77;100.00;61770.03;4979511;28;46979;-80
2021/06/17 02:32:54;;;;;;;;;7.00;5.75;;;;;-144.77;100.00;61770.03;4979388;28;47129;-80
2021/06/17 02:35:25;;;;;;;;;7.00;6.25;;;;;-144.77;100.00;61770.03;4968130;28;47004;-82
2021/06/17 02:37:56;;;;;;;;;8.75;8.00;;;;;-144.77;100.00;61770.03;4979810;28;46937;-84
2021/06/17 02:40:24;;;;;;;;;6.25;6.00;;;;;-144.77;100.00;61770.03;4979828;28;47060;-87
2021/06/17 02:42:52;;;;;;;;;9.50;7.25;;;;;-144.77;100.00;61770.03;4979857;28;48268;-83
2021/06/17 02:45:18;;;;;;;;;13.00;6.00;;;;;-144.77;100.00;61770.03;4979737;28;47245;-85
2021/06/17 02:47:43;;;;;;;;;9.25;7.25;;;;;-144.77;100.00;61770.03;4979749;28;46980;-83
2021/06/17 02:50:09;;;;;;;;;7.75;6.50;;;;;-144.77;100.00;61770.03;4980141;28;47078;-83
2021/06/17 02:52:39;;;;;;;;;8.00;7.00;;;;;-144.77;100.00;61770.03;4977490;28;46979;-82
2021/06/17 02:55:05;;;;;;;;;11.00;7.00;;;;;-144.77;100.00;61770.03;4973504;28;46876;-81
2021/06/17 02:57:55;;;;;;;;;9.00;8.00;;;;;-144.77;100.00;61770.03;4962045;28;47128;-82
2021/06/17 03:00:29;;;;;;;;;9.25;7.00;;;;;-144.77;100.00;61770.03;4979569;28;47194;-81
2021/06/17 03:03:38;;;;;;;;;7.00;7.00;;;;;-144.77;100.00;61770.03;4979011;28;47845;-81
2021/06/17 03:06:07;;;;;;;;;9.75;8.00;;;;;-144.77;100.00;61770.03;4937757;28;46951;-81
2021/06/17 03:08:40;;;;;;;;;11.00;9.50;;;;;-144.77;100.00;61770.03;4971894;28;47137;-81
2021/06/17 03:11:09;;;;;;;;;12.50;8.00;;;;;-144.77;100.00;61770.03;4978940;28;47031;-80
2021/06/17 03:13:40;;;;;;;;;12.25;8.50;;;;;-144.77;100.00;61770.03;4978782;28;47027;-80
2021/06/17 03:16:09;;;;;;;;;12.50;8.75;;;;;-144.77;100.00;61770.03;4972375;28;47182;-80
2021/06/17 03:18:36;;;;;;;;;7.50;7.50;;;;;-144.77;100.00;61770.03;4979291;28;47130;-80
2021/06/17 03:21:03;;;;;;;;;12.75;10.50;;;;;-144.77;100.00;61770.03;4976050;28;46865;-80
2021/06/17 03:23:31;;;;;;;;;18.25;14.50;;;;;-144.77;100.00;61770.03;4974936;28;47339;-80
2021/06/17 03:26:01;;;;;;;;;12.50;11.25;;;;;-144.77;100.00;61770.03;4977353;28;47213;-80
2021/06/17 03:28:29;;;;;;;;;14.75;10.00;;;;;-144.77;100.00;61770.03;4978284;28;46968;-80
2021/06/17 03:30:56;;;;;;;;;13.50;10.25;;;;;-144.77;100.00;61770.03;4979448;28;47345;-80
2021/06/17 03:33:28;;;;;;;;;14.75;9.50;;;;;-144.77;100.00;61770.03;4979014;28;47050;-80
2021/06/17 03:35:55;;;;;;;;;11.00;8.00;;;;;-144.77;100.00;61770.03;4978070;28;47059;-80
2021/06/17 03:38:22;;;;;;;;;9.25;9.25;;;;;-144.77;100.00;61770.03;4979225;28;46912;-80
2021/06/17 03:40:51;;;;;;;;;10.75;9.75;;;;;-144.77;100.00;61770.03;4957240;28;46987;-80
2021/06/17 03:43:20;;;;;;;;;9.00;9.00;;;;;-144.77;100.00;61770.03;4978940;28;47001;-80
2021/06/17 03:45:47;;;;;;;;;12.75;10.00;;;;;-144.77;100.00;61770.03;4978272;28;47070;-80
2021/06/17 03:48:15;;;;;;;;;10.50;10.50;;;;;-144.77;100.00;61770.03;4978790;28;46975;-82
2021/06/17 03:50:44;;;;;;;;;9.00;8.00;;;;;-144.77;100.00;61770.03;4979133;28;46970;-80
2021/06/17 03:53:11;;;;;;;;;9.50;8.00;;;;;-144.77;100.00;61770.03;4978489;28;47166;-81
2021/06/17 03:55:39;;;;;;;;;13.50;10.00;;;;;-144.77;100.00;61770.03;4978028;28;47116;-81
2021/06/17 03:58:05;;;;;;;;;9.50;8.50;;;;;-144.77;100.00;61770.03;4978827;28;47062;-80
2021/06/17 04:00:32;;;;;;;;;12.75;9.75;;;;;-144.77;100.00;61770.03;4978873;28;47230;-80
2021/06/17 04:03:07;;;;;;;;;10.00;9.00;;;;;-144.77;100.00;61770.03;4978528;28;47249;-81
2021/06/17 04:05:34;;;;;;;;;10.50;10.50;;;;;-144.77;100.00;61770.03;4981337;28;47298;-80
2021/06/17 04:08:01;;;;;;;;;12.50;10.75;;;;;-144.77;100.00;61770.03;4982234;28;46945;-80
2021/06/17 04:10:29;;;;;;;;;11.75;9.00;;;;;-144.77;100.00;61770.03;4981951;28;47115;-80
2021/06/17 04:12:57;;;;;;;;;9.00;7.00;;;;;-144.77;100.00;61770.03;4981680;28;47067;-80
2021/06/17 04:15:25;;;;;;;;;12.75;11.75;;;;;-144.77;100.00;61770.03;4979758;28;47388;-80
2021/06/17 04:17:57;;;;;;;;;11.75;9.00;;;;;-144.77;100.00;61770.03;4982063;28;47083;-80
2021/06/17 04:20:39;;;;;;;;;9.25;8.00;;;;;-144.77;100.00;61770.03;4982318;28;46805;-81
2021/06/17 04:23:07;;;;;;;;;10.25;8.50;;;;;-144.77;100.00;61770.03;4980825;28;47364;-80
2021/06/17 04:25:34;;;;;;;;;9.50;8.00;;;;;-144.77;100.00;61770.03;4981263;28;47209;-81
2021/06/17 04:28:02;;;;;;;;;9.00;8.00;;;;;-144.77;100.00;61770.03;4981324;28;47012;-80
2021/06/17 04:30:29;;;;;;;;;12.50;8.00;;;;;-144.77;100.00;61770.03;4981772;28;47334;-80
2021/06/17 04:32:57;;;;;;;;;10.50;8.25;;;;;-144.77;100.00;61770.03;4964007;28;48384;-80
2021/06/17 04:35:24;;;;;;;;;9.75;7.75;;;;;-144.77;100.00;61770.03;4980367;28;47102;-80
2021/06/17 04:37:51;;;;;;;;;10.50;9.25;;;;;-144.77;100.00;61770.03;4982003;28;46806;-80
2021/06/17 04:40:19;;;;;;;;;10.50;9.00;;;;;-144.77;100.00;61770.03;4981330;28;47197;-80
2021/06/17 04:42:45;;;;;;;;;11.50;8.75;;;;;-144.77;100.00;61770.03;4970266;28;47030;-80
2021/06/17 04:45:11;;;;;;;;;9.00;7.75;;;;;-144.77;100.00;61770.03;4981805;28;46990;-79
2021/06/17 04:47:39;;;;;;;;;10.50;10.50;;;;;-144.77;100.00;61770.03;4980285;28;46941;-80
2021/06/17 04:50:09;;;;;;;;;11.00;8.75;;;;;-144.77;100.00;61770.03;4981119;28;46917;-80
2021/06/17 04:52:39;;;;;;;;;10.00;7.50;;;;;-144.77;100.00;61770.03;4981380;28;47030;-81
2021/06/17 04:55:05;;;;;;;;;8.00;8.00;;;;;-144.77;100.00;61770.03;4976882;28;46939;-80
2021/06/17 04:57:31;;;;;;;;;13.50;9.50;;;;;-144.77;100.00;61770.03;4974317;28;46950;-81
2021/06/17 04:59:57;;;;;;;;;14.00;8.25;;;;;-144.77;100.00;61770.03;4981259;28;47113;-80
2021/06/17 05:02:22;;;;;;;;;8.00;8.00;;;;;-144.77;100.00;61770.03;4980222;28;47093;-80
2021/06/17 05:04:48;;;;;;;;;9.75;9.75;;;;;-144.77;100.00;61770.03;4981147;28;47025;-80
2021/06/17 05:12:29;;;;;;;;;11.25;8.75;;;;;-144.77;100.00;61770.03;4981261;28;47358;-79
2021/06/17 05:14:55;;;;;;;;;12.75;10.75;;;;;-144.77;100.00;61770.03;4980779;28;47057;-79
2021/06/17 05:17:20;;;;;;;;;12.75;11.00;;;;;-144.77;100.00;61770.03;4980389;28;46876;-80
2021/06/17 05:19:46;;;;;;;;;11.50;10.00;;;;;-144.77;100.00;61770.03;4981436;28;46980;-79
2021/06/17 05:22:12;;;;;;;;;12.75;11.50;;;;;-144.77;100.00;61770.03;4981254;28;47112;-80
2021/06/17 05:24:38;;;;;;;;;10.75;9.25;;;;;-144.77;100.00;61770.03;4972086;28;47061;-80
2021/06/17 05:27:06;;;;;;;;;11.75;10.75;;;;;-144.77;100.00;61770.03;4976661;28;46982;-80
2021/06/17 05:29:37;;;;;;;;;11.75;8.75;;;;;-144.77;100.00;61770.03;4981240;28;46857;-82
2021/06/17 05:32:04;;;;;;;;;9.75;9.00;;;;;-144.77;100.00;61770.03;4963099;28;49543;-82
2021/06/17 05:34:29;;;;;;;;;10.00;9.75;;;;;-144.77;100.00;61770.03;4980299;28;47046;-82
2021/06/17 05:37:40;;;;;;;;;;;;;;;;;;;;;
2021/06/17 05:40:23;;;;;;;;;12.00;7.50;;;;;-144.77;100.00;61770.03;4979520;28;69378;-82
2021/06/17 05:42:59;;;;;;;;;10.25;10.25;;;;;-144.77;100.00;61770.03;4972735;28;47982;-83
2021/06/17 05:45:24;;;;;;;;;13.00;11.50;;;;;-144.77;100.00;61770.03;4980139;28;47626;-82
2021/06/17 05:47:50;;;;;;;;;12.75;11.00;;;;;-144.77;100.00;61770.03;4980595;28;46933;-82
2021/06/17 05:50:49;;;;;;;;;;;;;;;;;;;;;
2021/06/17 05:53:40;;;;;;;;;;;;;;;;;;;;;
2021/06/17 06:35:06;;;;;;;;;10.00;8.50;;;;;-144.77;100.00;61770.03;5006343;23;45370;-85
2021/06/17 06:37:47;;;;;;;;;;;;;;;;;;;;;
2021/06/17 06:41:00;;;;;;;;;;;;;;;;;;;;;
2021/06/17 06:44:25;;;;;;;;;;;;;;;;;;;;;
2021/06/17 06:46:51;;;;;;;;;9.00;8.00;;;;;-144.77;100.00;61770.03;4995735;28;75382;-86
2021/06/17 06:57:39;;;;;;;;;7.25;7.00;;;;;-144.77;100.00;61770.03;4883801;28;47134;-84
2021/06/17 06:59:51;;;;;;;;;8.00;7.00;;;;;-144.77;100.00;61770.03;4844996;29;47369;-82
2021/06/17 07:02:17;;;;;;;;;6.50;6.00;;;;;-144.77;100.00;61770.03;4908542;28;46938;-82
2021/06/17 07:04:43;;;;;;;;;6.50;6.25;;;;;-144.77;100.00;61770.03;4985682;28;47217;-79
2021/06/17 07:07:09;;;;;;;;;7.00;6.75;;;;;-144.77;100.00;61770.03;4994848;28;46929;-80
2021/06/17 07:09:35;;;;;;;;;8.25;5.50;;;;;-144.77;100.00;61770.03;4998784;28;46957;-80
2021/06/17 07:12:02;;;;;;;;;8.75;6.75;;;;;-144.77;100.00;61770.03;4998921;28;47151;-82
2021/06/17 07:14:29;;;;;;;;;6.00;5.50;;;;;-144.77;100.00;61770.03;4998937;28;47045;-81
2021/06/17 07:16:55;;;;;;;;;7.25;5.00;;;;;-144.77;100.00;61770.03;4998927;28;47036;-81
2021/06/17 07:19:21;;;;;;;;;8.75;7.25;;;;;-144.77;100.00;61770.03;4992571;28;47167;-82
2021/06/17 07:21:46;;;;;;;;;8.25;8.25;;;;;-144.77;100.00;61770.03;4998607;28;46990;-82
2021/06/17 07:24:19;;;;;;;;;9.00;7.00;;;;;-144.77;100.00;61770.03;4990360;28;47145;-82
2021/06/17 07:26:51;;;;;;;;;8.00;8.00;;;;;-144.77;100.00;61770.03;4994081;28;47214;-82
2021/06/17 07:29:17;;;;;;;;;9.00;7.00;;;;;-144.77;100.00;61770.03;4990263;28;47122;-82
2021/06/17 07:31:44;;;;;;;;;9.50;6.50;;;;;-144.77;100.00;61770.03;4995087;28;47117;-82
2021/06/17 07:34:11;;;;;;;;;7.00;6.00;;;;;-144.77;100.00;61770.03;4988653;28;47099;-82
2021/06/17 07:36:38;;;;;;;;;8.00;6.25;;;;;-144.77;100.00;61770.03;4994695;28;48097;-82
2021/06/17 07:39:09;;;;;;;;;7.00;6.25;;;;;-144.77;100.00;61770.03;4992759;28;46819;-84
2021/06/17 07:41:36;;;;;;;;;6.50;6.00;;;;;-144.77;100.00;61770.03;4991819;28;47078;-85
2021/06/17 07:44:03;;;;;;;;;6.00;6.00;;;;;-144.77;100.00;61770.03;5000016;28;46976;-85
2021/06/17 07:46:30;;;;;;;;;7.75;6.50;;;;;-144.77;100.00;61770.03;4992372;28;46992;-84
2021/06/17 07:48:58;;;;;;;;;8.00;6.25;;;;;-144.77;100.00;61770.03;4989300;28;47227;-84
2021/06/17 07:51:26;;;;;;;;;8.25;6.25;;;;;-144.77;100.00;61770.03;4990790;28;47108;-84
2021/06/17 07:53:51;;;;;;;;;5.50;5.00;;;;;-144.77;100.00;61770.03;4996099;28;46956;-84
2021/06/17 07:56:18;;;;;;;;;5.50;4.50;;;;;-144.77;100.00;61770.03;4997650;28;47765;-85
2021/06/17 07:58:46;;;;;;;;;7.50;5.00;;;;;-144.77;100.00;61770.03;4987535;28;47479;-85
2021/06/17 08:01:12;;;;;;;;;8.50;6.75;;;;;-144.77;100.00;61770.03;4992637;28;46981;-85
2021/06/17 08:03:38;;;;;;;;;9.25;6.00;;;;;-144.77;100.00;61770.03;5001357;28;46777;-84
2021/06/17 08:06:04;;;;;;;;;5.00;5.00;;;;;-144.77;100.00;61770.03;5001535;28;47691;-85
2021/06/17 08:08:30;;;;;;;;;6.00;5.25;;;;;-144.77;100.00;61770.03;5001121;28;47053;-86
2021/06/17 08:10:57;;;;;;;;;5.75;5.00;;;;;-144.77;100.00;61770.03;4991180;28;47138;-83
2021/06/17 08:13:23;;;;;;;;;7.00;4.50;;;;;-144.77;100.00;61770.03;4982269;28;47100;-83
2021/06/17 08:15:49;;;;;;;;;5.50;3.25;;;;;-144.77;100.00;61770.03;4999746;28;48646;-82
2021/06/17 08:18:15;;;;;;;;;4.25;3.00;;;;;-144.77;100.00;61770.03;5001112;28;47144;-82
2021/06/17 08:20:42;;;;;;;;;5.50;5.25;;;;;-144.77;100.00;61770.03;5001442;28;47043;-82
2021/06/17 08:23:08;;;;;;;;;5.00;3.00;;;;;-144.77;100.00;61770.03;4996381;28;47067;-84
2021/06/17 08:25:34;;;;;;;;;6.00;4.00;;;;;-144.77;100.00;61770.03;5001151;28;47070;-84
2021/06/17 08:28:04;;;;;;;;;5.00;4.00;;;;;-144.77;100.00;61770.03;5001361;28;47195;-85
2021/06/17 08:30:31;;;;;;;;;3.50;3.50;;;;;-144.77;100.00;61770.03;5001355;28;46940;-84
2021/06/17 08:32:57;;;;;;;;;4.25;3.00;;;;;-144.77;100.00;61770.03;4989924;28;47126;-84
2021/06/17 08:35:22;;;;;;;;;4.50;3.00;;;;;-144.77;100.00;61770.03;5001228;28;46978;-84
2021/06/17 08:37:48;;;;;;;;;5.75;4.00;;;;;-144.77;100.00;61770.03;4984843;28;47171;-84
2021/06/17 08:40:14;;;;;;;;;3.00;3.00;;;;;-144.77;100.00;61770.03;4992372;28;46958;-84
2021/06/17 08:42:39;;;;;;;;;3.50;3.50;;;;;-144.77;100.00;61770.03;5000023;28;47029;-83
2021/06/17 08:45:10;;;;;;;;;4.00;4.00;;;;;-144.77;100.00;61770.03;5001270;28;47933;-84
2021/06/17 08:47:36;;;;;;;;;2.25;2.25;;;;;-144.77;100.00;61770.03;5000701;28;47102;-82
2021/06/17 08:50:06;;;;;;;;;5.00;5.00;;;;;-144.77;100.00;61770.03;5000242;28;46927;-82
2021/06/17 08:52:34;;;;;;;;;5.00;3.50;;;;;-144.77;100.00;61770.03;5000256;28;47253;-83
2021/06/17 08:55:20;;;;;;;;;5.25;4.00;;;;;-144.77;100.00;61770.03;5000725;28;46877;-83
2021/06/17 08:57:47;;;;;;;;;3.50;3.00;;;;;-144.77;100.00;61770.03;5000967;28;46773;-82
2021/06/17 09:00:16;;;;;;;;;3.25;2.75;;;;;-144.77;100.00;61770.03;4983097;28;47264;-82
2021/06/17 09:02:52;;;;;;;;;3.50;3.00;;;;;-144.77;100.00;61770.03;5001004;28;47014;-82
2021/06/17 09:05:18;;;;;;;;;3.00;3.00;;;;;-144.77;100.00;61770.03;5000657;28;48100;-82
2021/06/17 09:07:44;;;;;;;;;5.50;2.75;;;;;-144.77;100.00;61770.03;4983223;28;46860;-81
2021/06/17 09:10:10;;;;;;;;;5.75;4.00;;;;;-144.77;100.00;61770.03;4982757;28;48175;-82
2021/06/17 09:13:03;;;;;;;;;5.00;3.50;;;;;-144.77;100.00;61770.03;5001111;28;46979;-81
2021/06/17 09:15:33;;;;;;;;;4.00;2.50;;;;;-144.77;100.00;61770.03;4997660;28;48319;-81
2021/06/17 09:18:12;;;;;;;;;3.25;3.00;;;;;-144.77;100.00;61770.03;4982084;28;47129;-81
2021/06/17 09:20:42;;;;;;;;;3.50;3.25;;;;;-144.77;100.00;61770.03;5000677;28;47196;-81
2021/06/17 09:23:30;;;;;;;;;3.00;3.00;;;;;-144.77;100.00;61770.03;4996979;28;46830;-82
2021/06/17 09:26:09;;;;;;;;;4.25;4.25;;;;;-144.77;100.00;61770.03;4995067;28;47169;-82
2021/06/17 09:29:03;;;;;;;;;3.50;3.50;;;;;-144.77;100.00;61770.03;4982877;28;47657;-82
2021/06/17 09:31:32;;;;;;;;;2.50;2.50;;;;;-144.77;100.00;61770.03;4996797;28;46846;-81
2021/06/17 09:33:59;;;;;;;;;4.00;4.00;;;;;-144.77;100.00;61770.03;4989426;28;47105;-81
2021/06/17 09:36:34;;;;;;;;;4.25;4.25;;;;;-144.77;100.00;61770.03;4994563;28;47906;-81
2021/06/17 09:39:08;;;;;;;;;3.00;3.00;;;;;-144.77;100.00;61770.03;4998987;28;47198;-81
2021/06/17 09:41:46;;;;;;;;;3.75;3.00;;;;;-144.77;100.00;61770.03;4999674;28;47149;-81
2021/06/17 09:44:30;;;;;;;;;3.25;3.25;;;;;-144.77;100.00;61770.03;4995095;28;47036;-82
2021/06/17 09:47:25;;;;;;;;;6.25;4.00;;;;;-144.77;100.00;61770.03;4993348;28;47831;-81
2021/06/17 09:49:52;;;;;;;;;5.00;4.00;;;;;-144.77;100.00;61770.03;4998606;28;47048;-81
2021/06/17 09:52:19;;;;;;;;;5.00;3.00;;;;;-144.77;100.00;61770.03;4997452;28;46903;-81
2021/06/17 09:54:46;;;;;;;;;3.50;3.50;;;;;-144.77;100.00;61770.03;4998212;28;47140;-81
2021/06/17 09:57:23;;;;;;;;;5.00;3.50;;;;;-144.77;100.00;61770.03;4997856;28;47757;-79
2021/06/17 09:59:53;;;;;;;;;7.50;4.75;;;;;-144.77;100.00;61770.03;4999900;28;47104;-80
2021/06/17 10:02:34;;;;;;;;;3.50;3.00;;;;;-144.77;100.00;61770.03;4997374;28;46982;-80
2021/06/17 10:05:25;;;;;;;;;5.00;4.00;;;;;-144.77;100.00;61770.03;4999108;28;47059;-79
2021/06/17 10:07:51;;;;;;;;;4.00;3.25;;;;;-144.77;100.00;61770.03;4994822;28;46829;-80
2021/06/17 10:10:25;;;;;;;;;5.00;4.00;;;;;-144.77;100.00;61770.03;4997507;28;46861;-79
2021/06/17 10:12:50;;;;;;;;;4.00;4.00;;;;;-144.77;100.00;61770.03;4993866;28;47013;-80
2021/06/17 10:15:16;;;;;;;;;5.00;5.00;;;;;-144.77;100.00;61770.03;4992245;28;46881;-80
2021/06/17 10:17:42;;;;;;;;;5.00;4.00;;;;;-144.77;100.00;61770.03;4989486;28;47034;-81
2021/06/17 10:20:11;;;;;;;;;3.75;3.00;;;;;-144.77;100.00;61770.03;4982749;28;47264;-80
2021/06/17 10:22:38;;;;;;;;;6.00;4.50;;;;;-144.77;100.00;61770.03;4981919;28;46965;-82
2021/06/17 10:25:08;;;;;;;;;4.00;4.00;;;;;-144.77;100.00;61770.03;4964720;28;47075;-81
2021/06/17 10:27:42;;;;;;;;;4.50;4.50;;;;;-144.77;100.00;61770.03;4984959;28;48661;-81
2021/06/17 10:30:10;;;;;;;;;4.75;4.75;;;;;-144.77;100.00;61770.03;4978457;28;47157;-82
2021/06/17 10:32:40;;;;;;;;;5.50;5.50;;;;;-144.77;100.00;61770.03;4979180;28;47171;-82
2021/06/17 10:35:08;;;;;;;;;3.00;3.00;;;;;-144.77;100.00;61770.03;4979593;28;46822;-82
2021/06/17 10:37:48;;;;;;;;;3.75;3.50;;;;;-144.77;100.00;61770.03;4979661;28;47252;-81
2021/06/17 10:40:14;;;;;;;;;4.00;3.50;;;;;-144.77;100.00;61770.03;4978987;28;47333;-81
2021/06/17 10:42:41;;;;;;;;;8.00;4.25;;;;;-144.77;100.00;61770.03;4979651;28;46873;-81
2021/06/17 10:45:08;;;;;;;;;4.75;3.25;;;;;-144.77;100.00;61770.03;4979691;28;46826;-81
2021/06/17 10:47:40;;;;;;;;;5.00;5.00;;;;;-144.77;100.00;61770.03;4978948;28;47014;-80
2021/06/17 10:50:10;;;;;;;;;3.25;3.25;;;;;-144.77;100.00;61770.03;4979703;28;47104;-81
2021/06/17 10:52:38;;;;;;;;;3.25;3.00;;;;;-144.77;100.00;61770.03;4968062;28;47077;-83
2021/06/17 10:55:07;;;;;;;;;4.00;4.00;;;;;-144.77;100.00;61770.03;4979489;28;46822;-82
2021/06/17 10:57:45;;;;;;;;;4.00;3.00;;;;;-144.77;100.00;61770.03;4979213;28;48599;-83
2021/06/17 11:00:26;;;;;;;;;5.00;3.75;;;;;-144.77;100.00;61770.03;4979459;28;47378;-82
2021/06/17 11:02:55;;;;;;;;;4.50;4.00;;;;;-144.77;100.00;61770.03;4979383;28;46774;-82
2021/06/17 11:08:17;;;;;;;;;3.50;3.00;;;;;-144.77;100.00;61770.03;4987526;28;46964;-82
2021/06/17 11:10:47;;;;;;;;;4.25;4.00;;;;;-144.77;100.00;61770.03;4981074;28;47008;-83
2021/06/17 11:13:40;;;;;;;;;4.25;4.25;;;;;-144.77;100.00;61770.03;4979003;28;46958;-82
2021/06/17 11:16:14;;;;;;;;;4.00;4.00;;;;;-144.77;100.00;61770.03;4968746;28;46818;-83
2021/06/17 11:19:00;;;;;;;;;4.25;3.75;;;;;-144.77;100.00;61770.03;4979204;28;48300;-82
2021/06/17 11:21:28;;;;;;;;;4.50;4.50;;;;;-144.77;100.00;61770.03;4979363;28;47023;-85
2021/06/17 11:23:56;;;;;;;;;3.50;3.00;;;;;-144.77;100.00;61770.03;4970786;28;46963;-83
2021/06/17 11:26:47;;;;;;;;;5.00;3.00;;;;;-144.77;100.00;61770.03;4977267;28;47078;-83
2021/06/17 11:29:21;;;;;;;;;5.25;5.25;;;;;-144.77;100.00;61770.03;4973428;28;47169;-84
2021/06/17 11:31:54;;;;;;;;;5.00;5.00;;;;;-144.77;100.00;61770.03;4978881;28;47085;-83
2021/06/17 11:34:28;;;;;;;;;2.00;2.00;;;;;-144.77;100.00;61770.03;4977617;28;46992;-84
2021/06/17 11:36:57;;;;;;;;;4.50;4.25;;;;;-144.77;100.00;61770.03;4979077;28;47345;-83
2021/06/17 11:39:28;;;;;;;;;3.50;3.50;;;;;-144.77;100.00;61770.03;4978636;28;47812;-83
2021/06/17 11:41:55;;;;;;;;;3.75;3.00;;;;;-144.77;100.00;61770.03;4971828;28;46882;-84
2021/06/17 11:44:24;;;;;;;;;3.00;3.00;;;;;-144.77;100.00;61770.03;4979045;28;46925;-83
2021/06/17 11:47:01;;;;;;;;;3.25;3.25;;;;;-144.77;100.00;61770.03;4979537;28;46986;-84
2021/06/17 11:49:32;;;;;;;;;4.00;3.50;;;;;-144.77;100.00;61770.03;4978831;28;48265;-83
2021/06/17 11:51:58;;;;;;;;;5.25;4.25;;;;;-144.77;100.00;61770.03;4978944;28;46932;-84
2021/06/17 11:54:25;;;;;;;;;3.00;3.00;;;;;-144.77;100.00;61770.03;4961120;28;47090;-84
2021/06/17 11:56:53;;;;;;;;;3.00;3.00;;;;;-144.77;100.00;61770.03;4979151;28;47009;-85
2021/06/17 11:59:31;;;;;;;;;3.50;3.50;;;;;-144.77;100.00;61770.03;4976033;28;47954;-85
2021/06/17 12:02:07;;;;;;;;;4.25;3.50;;;;;-144.77;100.00;61770.03;4978733;28;47076;-84
2021/06/17 12:04:53;;;;;;;;;3.00;3.00;;;;;-144.77;100.00;61770.03;4966384;28;46873;-84
2021/06/17 12:07:25;;;;;;;;;5.00;4.00;;;;;-144.77;100.00;61770.03;4978944;28;47020;-83
2021/06/17 12:09:51;;;;;;;;;4.25;3.25;;;;;-144.77;100.00;61770.03;4978498;28;47256;-84
2021/06/17 12:12:25;;;;;;;;;3.25;3.25;;;;;-144.77;100.00;61770.03;4978592;28;47057;-84
2021/06/17 12:14:53;;;;;;;;;2.75;2.75;;;;;-144.77;100.00;61770.03;4978633;28;46873;-84
2021/06/17 12:17:39;;;;;;;;;3.00;3.00;;;;;-144.77;100.00;61770.03;4978767;28;47249;-85
2021/06/17 12:20:26;;;;;;;;;2.75;2.75;;;;;-144.77;100.00;61770.03;4978623;28;47050;-84
2021/06/17 12:22:58;;;;;;;;;3.00;2.00;;;;;-144.77;100.00;61770.03;4977175;28;47001;-83
2021/06/17 12:25:26;;;;;;;;;2.50;2.50;;;;;-144.77;100.00;61770.03;4972099;28;47146;-82
2021/06/17 12:27:52;;;;;;;;;3.50;3.00;;;;;-144.77;100.00;61770.03;4982144;28;47345;-83
2021/06/17 12:30:25;;;;;;;;;2.25;2.25;;;;;-144.77;100.00;61770.03;4981969;28;48279;-83
2021/06/17 12:32:51;;;;;;;;;3.75;3.50;;;;;-144.77;100.00;61770.03;4981432;28;47185;-83
2021/06/17 12:35:17;;;;;;;;;4.00;4.00;;;;;-144.77;100.00;61770.03;4981550;28;47056;-83
2021/06/17 12:37:54;;;;;;;;;4.00;2.50;;;;;-144.77;100.00;61770.03;4982177;28;47281;-83
2021/06/17 12:40:32;;;;;;;;;4.50;3.00;;;;;-144.77;100.00;61770.03;4981478;28;46837;-83
2021/06/17 12:43:06;;;;;;;;;5.75;4.25;;;;;-144.77;100.00;61770.03;4976931;28;47217;-83
2021/06/17 12:45:32;;;;;;;;;5.25;4.00;;;;;-144.77;100.00;61770.03;4982024;28;46970;-83
2021/06/17 12:48:06;;;;;;;;;4.50;3.00;;;;;-144.77;100.00;61770.03;4981831;28;47107;-83
2021/06/17 12:53:16;;;;;;;;;2.00;2.00;;;;;-144.77;100.00;61770.03;4994552;28;47326;-86
2021/06/17 12:55:41;;;;;;;;;3.00;3.00;;;;;-144.77;100.00;61770.03;4981281;28;47448;-84
2021/06/17 12:58:12;;;;;;;;;2.25;2.00;;;;;-144.77;100.00;61770.03;4981562;28;47340;-84
2021/06/17 13:00:38;;;;;;;;;4.00;3.25;;;;;-144.77;100.00;61770.03;4981438;28;48052;-84
2021/06/17 13:03:03;;;;;;;;;4.25;2.50;;;;;-144.77;100.00;61770.03;4981175;28;46872;-84
2021/06/17 13:05:29;;;;;;;;;2.00;2.00;;;;;-144.77;100.00;61770.03;4981297;28;46818;-85
2021/06/17 13:08:05;;;;;;;;;2.75;2.75;;;;;-144.77;100.00;61770.03;4981661;28;46980;-85
2021/06/17 13:10:52;;;;;;;;;4.00;3.00;;;;;-144.77;100.00;61770.03;4980890;28;47622;-85
2021/06/17 13:13:25;;;;;;;;;3.75;3.75;;;;;-144.77;100.00;61770.03;4981061;28;46954;-84
2021/06/17 13:15:57;;;;;;;;;2.00;2.00;;;;;-144.77;100.00;61770.03;4981324;28;46908;-85
2021/06/17 13:18:25;;;;;;;;;4.50;3.00;;;;;-144.77;100.00;61770.03;4981252;28;46983;-85
2021/06/17 13:20:58;;;;;;;;;3.00;3.00;;;;;-144.77;100.00;61770.03;4981241;28;47061;-85
2021/06/17 13:23:30;;;;;;;;;4.25;3.00;;;;;-144.77;100.00;61770.03;4976214;28;46924;-84
2021/06/17 13:26:07;;;;;;;;;2.75;2.75;;;;;-144.77;100.00;61770.03;4975604;28;47066;-85
2021/06/17 13:28:34;;;;;;;;;4.50;3.00;;;;;-144.77;100.00;61770.03;4981234;28;46997;-86
2021/06/17 13:31:05;;;;;;;;;3.75;3.00;;;;;-144.77;100.00;61770.03;4981257;28;48004;-84
2021/06/17 13:33:31;;;;;;;;;2.75;2.75;;;;;-144.77;100.00;61770.03;4980690;28;46911;-85
2021/06/17 13:35:57;;;;;;;;;2.50;2.50;;;;;-144.77;100.00;61770.03;4980999;28;47029;-86
2021/06/17 13:38:23;;;;;;;;;3.00;3.00;;;;;-144.77;100.00;61770.03;4980131;28;47230;-85
2021/06/17 13:40:50;;;;;;;;;5.25;3.00;;;;;-144.77;100.00;61770.03;4977036;28;46874;-86
2021/06/17 13:43:17;;;;;;;;;3.00;3.00;;;;;-144.77;100.00;61770.03;4978043;28;46973;-85
2021/06/17 13:45:43;;;;;;;;;2.25;2.00;;;;;-144.77;100.00;61770.03;4980949;28;46908;-85
2021/06/17 13:48:10;;;;;;;;;3.00;3.00;;;;;-144.77;100.00;61770.03;4980970;28;47079;-85
2021/06/17 13:50:37;;;;;;;;;2.00;2.00;;;;;-144.77;100.00;61770.03;4980755;28;47241;-85
2021/06/17 13:53:06;;;;;;;;;3.75;3.75;;;;;-144.77;100.00;61770.03;4980519;28;47088;-85
2021/06/17 13:55:32;;;;;;;;;3.00;3.00;;;;;-144.77;100.00;61770.03;4980459;28;47043;-85
2021/06/17 13:57:59;;;;;;;;;2.00;1.75;;;;;-144.77;100.00;61770.03;4980569;28;48092;-85
2021/06/17 14:00:25;;;;;;;;;2.75;2.25;;;;;-144.77;100.00;61770.03;4963051;28;47116;-85
2021/06/17 14:02:51;;;;;;;;;2.25;1.25;;;;;-144.77;100.00;61770.03;4980240;28;47084;-84
2021/06/17 14:05:17;;;;;;;;;3.00;3.00;;;;;-144.77;100.00;61770.03;4963209;28;46987;-85
2021/06/17 14:07:44;;;;;;;;;5.25;4.25;;;;;-144.77;100.00;61770.03;4980564;28;46920;-85
2021/06/17 14:10:12;;;;;;;;;4.00;2.25;;;;;-144.77;100.00;61770.03;4980037;28;48358;-84
2021/06/17 14:12:38;;;;;;;;;3.75;2.00;;;;;-144.77;100.00;61770.03;4980373;28;46965;-84
2021/06/17 14:15:05;;;;;;;;;7.75;4.75;;;;;-144.77;100.00;61770.03;4980264;28;47106;-85